createdAt,value
2022-10-29T00:00:54.078Z,100.00
2022-10-29T00:03:22.279Z,100.00
2022-10-29T00:06:03.496Z,100.00
2022-10-29T00:08:32.620Z,100.00
2022-10-29T00:11:08.250Z,100.00
2022-10-29T00:13:35.814Z,100.00
2022-10-29T00:16:26.345Z,100.00
2022-10-29T00:18:54.639Z,100.00
2022-10-29T00:21:23.697Z,100.00
2022-10-29T00:23:51.400Z,100.00
2022-10-29T00:26:21.192Z,100.00
2022-10-29T00:28:51.477Z,100.00
2022-10-29T00:31:19.382Z,100.00
2022-10-29T00:33:46.973Z,100.00
2022-10-29T00:36:16.872Z,100.00
2022-10-29T00:38:43.667Z,100.00
2022-10-29T00:41:16.811Z,100.00
2022-10-29T00:43:49.371Z,100.00
2022-10-29T00:46:33.312Z,100.00
2022-10-29T00:49:00.636Z,100.00
2022-10-29T00:51:28.845Z,100.00
2022-10-29T00:54:08.264Z,100.00
2022-10-29T00:56:47.688Z,100.00
2022-10-29T00:59:16.980Z,100.00
2022-10-29T01:01:49.122Z,100.00
2022-10-29T01:04:17.670Z,100.00
2022-10-29T01:06:47.070Z,100.00
2022-10-29T01:09:14.077Z,100.00
2022-10-29T01:11:59.366Z,100.00
2022-10-29T01:14:28.949Z,100.00
2022-10-29T01:17:04.607Z,100.00
2022-10-29T01:20:06.525Z,100.00
2022-10-29T01:22:44.803Z,100.00
2022-10-29T01:25:35.888Z,100.00
2022-10-29T01:28:26.270Z,100.00
2022-10-29T01:30:56.194Z,100.00
2022-10-29T01:33:40.795Z,100.00
2022-10-29T01:36:14.849Z,100.00
2022-10-29T01:39:07.656Z,100.00
2022-10-29T01:41:44.124Z,100.00
2022-10-29T01:44:29.806Z,100.00
2022-10-29T01:47:04.116Z,100.00
2022-10-29T01:49:40.922Z,100.00
2022-10-29T01:52:11.364Z,100.00
2022-10-29T01:54:46.885Z,100.00
2022-10-29T01:57:43.012Z,100.00
2022-10-29T02:00:19.200Z,100.00
2022-10-29T02:03:01.257Z,100.00
2022-10-29T02:05:34.292Z,100.00
2022-10-29T02:08:19.413Z,100.00
2022-10-29T02:10:52.883Z,100.00
2022-10-29T02:13:24.478Z,100.00
2022-10-29T02:15:55.006Z,100.00
2022-10-29T02:18:22.755Z,100.00
2022-10-29T02:20:49.374Z,100.00
2022-10-29T02:23:17.056Z,100.00
2022-10-29T02:25:44.047Z,100.00
2022-10-29T02:28:10.885Z,100.00
2022-10-29T02:30:38.172Z,100.00
2022-10-29T02:33:04.788Z,100.00
2022-10-29T02:35:31.450Z,100.00
2022-10-29T02:37:58.122Z,100.00
2022-10-29T02:40:24.755Z,100.00
2022-10-29T02:42:51.360Z,100.00
2022-10-29T02:45:18.019Z,100.00
2022-10-29T02:47:44.638Z,100.00
2022-10-29T02:50:11.345Z,100.00
2022-10-29T02:52:37.965Z,100.00
2022-10-29T02:55:04.857Z,100.00
2022-10-29T02:57:31.634Z,100.00
2022-10-29T02:59:58.317Z,100.00
2022-10-29T03:02:25.233Z,100.00
2022-10-29T03:04:51.932Z,100.00
2022-10-29T03:07:18.536Z,100.00
2022-10-29T03:09:45.203Z,100.00
2022-10-29T03:12:11.805Z,100.00
2022-10-29T03:14:38.535Z,100.00
2022-10-29T03:17:05.680Z,100.00
2022-10-29T03:19:32.301Z,100.00
2022-10-29T03:21:58.963Z,100.00
2022-10-29T03:24:25.581Z,100.00
2022-10-29T03:26:52.252Z,100.00
2022-10-29T03:29:18.914Z,100.00
2022-10-29T03:31:45.605Z,100.00
2022-10-29T03:34:12.207Z,100.00
2022-10-29T03:36:38.895Z,100.00
2022-10-29T03:39:05.527Z,100.00
2022-10-29T03:41:32.126Z,100.00
2022-10-29T03:43:58.762Z,100.00
2022-10-29T03:46:25.408Z,100.00
2022-10-29T03:48:52.127Z,100.00
2022-10-29T03:51:18.831Z,100.00
2022-10-29T03:53:45.496Z,100.00
2022-10-29T03:56:12.196Z,100.00
2022-10-29T03:58:41.553Z,100.00
2022-10-29T04:01:10.729Z,100.00
2022-10-29T04:03:42.207Z,100.00
2022-10-29T04:06:15.843Z,100.00
2022-10-29T04:08:42.768Z,100.00
2022-10-29T04:11:12.441Z,100.00
2022-10-29T04:13:39.268Z,100.00
2022-10-29T04:16:06.165Z,100.00
2022-10-29T04:18:33.394Z,100.00
2022-10-29T04:29:24.894Z,100.00
2022-10-29T04:31:51.529Z,100.00
2022-10-29T04:34:18.227Z,100.00
2022-10-29T04:36:45.626Z,100.00
2022-10-29T04:39:12.253Z,100.00
2022-10-29T04:41:38.951Z,100.00
2022-10-29T04:44:05.561Z,100.00
2022-10-29T04:46:32.169Z,100.00
2022-10-29T04:48:58.884Z,100.00
2022-10-29T04:51:26.808Z,100.00
2022-10-29T04:53:53.708Z,100.00
2022-10-29T04:56:20.380Z,100.00
2022-10-29T04:58:47.162Z,100.00
2022-10-29T05:01:14.040Z,100.00
2022-10-29T05:03:40.902Z,100.00
2022-10-29T05:06:07.941Z,100.00
2022-10-29T05:08:34.775Z,100.00
2022-10-29T05:11:05.693Z,100.00
2022-10-29T05:13:33.091Z,100.00
2022-10-29T05:15:59.889Z,100.00
2022-10-29T05:18:26.677Z,100.00
2022-10-29T05:20:54.940Z,100.00
2022-10-29T05:23:21.861Z,100.00
2022-10-29T05:25:51.352Z,100.00
2022-10-29T05:28:21.203Z,100.00
2022-10-29T05:30:50.102Z,100.00
2022-10-29T05:33:19.202Z,100.00
2022-10-29T05:35:46.368Z,100.00
2022-10-29T05:38:14.249Z,100.00
2022-10-29T05:40:44.937Z,100.00
2022-10-29T05:43:13.518Z,100.00
2022-10-29T05:45:40.554Z,100.00
2022-10-29T05:48:07.741Z,100.00
2022-10-29T05:50:34.936Z,100.00
2022-10-29T05:53:04.480Z,100.00
2022-10-29T05:55:32.826Z,100.00
2022-10-29T05:58:01.854Z,100.00
2022-10-29T06:00:30.756Z,100.00
2022-10-29T06:02:57.904Z,100.00
2022-10-29T06:05:24.985Z,100.00
2022-10-29T06:08:00.246Z,100.00
2022-10-29T06:10:29.252Z,100.00
2022-10-29T06:12:56.212Z,100.00
2022-10-29T06:15:23.175Z,100.00
2022-10-29T06:17:50.592Z,90.22
2022-10-29T06:20:20.606Z,78.18
2022-10-29T06:22:47.648Z,68.78
2022-10-29T06:25:14.460Z,62.18
2022-10-29T06:27:41.059Z,57.59
2022-10-29T06:30:08.438Z,55.75
2022-10-29T06:32:35.124Z,54.72
2022-10-29T06:35:01.757Z,51.54
2022-10-29T06:37:29.825Z,49.63
2022-10-29T06:39:56.477Z,48.38
2022-10-29T06:42:23.124Z,49.41
2022-10-29T06:44:49.796Z,49.95
2022-10-29T06:47:16.532Z,46.89
2022-10-29T06:49:43.224Z,45.68
2022-10-29T06:52:09.852Z,46.05
2022-10-29T06:54:36.621Z,45.01
2022-10-29T06:57:03.909Z,43.95
2022-10-29T06:59:30.504Z,44.31
2022-10-29T07:01:57.234Z,45.08
2022-10-29T07:04:24.022Z,42.14
2022-10-29T07:06:50.733Z,46.47
2022-10-29T07:09:17.380Z,44.24
2022-10-29T07:11:44.032Z,46.14
2022-10-29T07:14:10.763Z,46.54
2022-10-29T07:16:37.400Z,46.94
2022-10-29T07:19:04.757Z,48.49
2022-10-29T07:21:31.777Z,47.59
2022-10-29T07:23:58.572Z,44.84
2022-10-29T07:26:25.243Z,42.91
2022-10-29T07:28:57.520Z,44.27
2022-10-29T07:31:24.504Z,44.94
2022-10-29T07:33:51.507Z,46.06
2022-10-29T07:36:18.176Z,40.97
2022-10-29T07:38:44.893Z,41.01
2022-10-29T07:41:11.699Z,37.63
2022-10-29T07:43:38.327Z,37.44
2022-10-29T07:46:05.105Z,37.87
2022-10-29T07:48:31.786Z,41.78
2022-10-29T07:50:59.552Z,39.19
2022-10-29T07:53:26.353Z,41.03
2022-10-29T07:55:54.885Z,43.59
2022-10-29T07:58:22.300Z,39.87
2022-10-29T08:00:49.633Z,39.27
2022-10-29T08:03:16.428Z,39.29
2022-10-29T08:05:43.432Z,42.22
2022-10-29T08:08:10.508Z,44.71
2022-10-29T08:10:37.428Z,41.90
2022-10-29T08:13:06.123Z,43.70
2022-10-29T08:15:34.819Z,44.91
2022-10-29T08:18:02.222Z,46.11
2022-10-29T08:20:29.658Z,46.59
2022-10-29T08:22:59.582Z,47.50
2022-10-29T08:25:26.611Z,47.23
2022-10-29T08:28:04.788Z,46.22
2022-10-29T08:30:32.423Z,46.05
2022-10-29T08:32:59.931Z,47.37
2022-10-29T08:35:27.580Z,46.26
2022-10-29T08:37:54.537Z,44.64
2022-10-29T08:40:42.795Z,42.34
2022-10-29T08:43:47.918Z,41.88
2022-10-29T08:46:40.746Z,40.45
2022-10-29T08:49:17.063Z,38.28
2022-10-29T08:51:51.443Z,38.17
2022-10-29T08:54:31.116Z,36.60
2022-10-29T08:57:04.597Z,37.62
2022-10-29T08:59:36.032Z,37.47
2022-10-29T09:02:03.072Z,37.12
2022-10-29T09:04:36.984Z,35.96
2022-10-29T09:07:26.684Z,36.26
2022-10-29T09:10:02.410Z,35.02
2022-10-29T09:12:52.438Z,34.55
2022-10-29T09:15:37.028Z,34.04
2022-10-29T09:18:19.032Z,33.91
2022-10-29T09:21:18.449Z,35.58
2022-10-29T09:24:10.135Z,35.18
2022-10-29T09:26:58.467Z,34.92
2022-10-29T09:29:31.509Z,33.83
2022-10-29T09:32:02.361Z,34.29
2022-10-29T09:34:34.080Z,35.24
2022-10-29T09:37:00.903Z,35.04
2022-10-29T09:39:37.549Z,36.51
2022-10-29T09:42:11.124Z,36.46
2022-10-29T09:45:09.553Z,35.61
2022-10-29T09:47:45.333Z,34.75
2022-10-29T09:50:17.980Z,34.45
2022-10-29T09:52:46.635Z,35.18
2022-10-29T09:55:23.314Z,34.96
2022-10-29T09:57:50.547Z,35.66
2022-10-29T10:00:21.476Z,36.22
2022-10-29T10:02:55.482Z,35.22
2022-10-29T10:05:30.935Z,36.62
2022-10-29T10:08:12.573Z,35.88
2022-10-29T10:10:55.859Z,37.23
2022-10-29T10:13:27.512Z,36.78
2022-10-29T10:16:02.846Z,35.22
2022-10-29T10:18:32.514Z,35.55
2022-10-29T10:21:12.671Z,33.90
2022-10-29T10:23:44.324Z,34.76
2022-10-29T10:26:29.078Z,35.06
2022-10-29T10:29:15.857Z,34.89
2022-10-29T10:31:50.204Z,35.25
2022-10-29T10:34:26.627Z,34.73
2022-10-29T10:37:05.304Z,33.78
2022-10-29T10:39:38.118Z,34.18
2022-10-29T10:42:14.928Z,34.58
2022-10-29T10:45:01.368Z,35.28
2022-10-29T10:47:32.096Z,34.96
2022-10-29T10:50:26.660Z,35.36
2022-10-29T10:52:55.477Z,34.25
2022-10-29T10:55:28.523Z,33.97
2022-10-29T10:58:05.104Z,34.19
2022-10-29T11:00:41.926Z,35.06
2022-10-29T11:03:08.663Z,34.66
2022-10-29T11:06:01.774Z,34.08
2022-10-29T11:08:45.321Z,34.02
2022-10-29T11:11:19.979Z,35.54
2022-10-29T11:13:48.017Z,35.99
2022-10-29T11:16:33.254Z,36.03
2022-10-29T11:19:13.828Z,35.99
2022-10-29T11:21:46.914Z,36.82
2022-10-29T11:24:26.117Z,35.42
2022-10-29T11:27:22.650Z,35.39
2022-10-29T11:30:12.209Z,35.26
2022-10-29T11:32:54.919Z,36.20
2022-10-29T11:35:44.460Z,36.04
2022-10-29T11:38:23.726Z,35.95
2022-10-29T11:40:50.326Z,37.00
2022-10-29T11:43:19.964Z,35.95
2022-10-29T11:46:12.997Z,35.93
2022-10-29T11:48:54.732Z,36.25
2022-10-29T11:51:40.012Z,35.53
2022-10-29T11:54:25.059Z,35.24
2022-10-29T11:57:03.975Z,36.87
2022-10-29T12:00:09.668Z,36.30
2022-10-29T12:02:55.399Z,35.29
2022-10-29T12:05:30.309Z,35.50
2022-10-29T12:08:15.730Z,35.73
2022-10-29T12:10:52.532Z,36.55
2022-10-29T12:13:39.879Z,36.21
2022-10-29T12:16:12.028Z,36.12
2022-10-29T12:18:45.464Z,35.05
2022-10-29T12:21:36.184Z,35.07
2022-10-29T12:24:40.108Z,35.46
2022-10-29T12:27:18.039Z,36.24
2022-10-29T12:29:47.820Z,36.48
2022-10-29T12:32:19.753Z,35.95
2022-10-29T12:35:11.315Z,36.49
2022-10-29T12:37:48.976Z,36.84
2022-10-29T12:40:24.336Z,36.80
2022-10-29T12:42:52.511Z,37.38
2022-10-29T12:45:25.776Z,37.77
2022-10-29T12:48:31.741Z,37.98
2022-10-29T12:51:36.069Z,38.16
2022-10-29T12:54:21.393Z,38.30
2022-10-29T12:56:50.406Z,38.28
2022-10-29T12:59:35.849Z,37.88
2022-10-29T13:02:21.355Z,37.61
2022-10-29T13:05:06.207Z,37.18
2022-10-29T13:07:59.618Z,37.73
2022-10-29T13:10:32.765Z,37.17
2022-10-29T13:12:59.397Z,37.73
2022-10-29T13:15:31.241Z,37.52
2022-10-29T13:18:06.287Z,36.53
2022-10-29T13:20:35.896Z,37.28
2022-10-29T13:23:05.362Z,37.48
2022-10-29T13:25:36.430Z,37.33
2022-10-29T13:28:08.934Z,37.58
2022-10-29T13:30:37.759Z,37.96
2022-10-29T13:33:29.005Z,38.11
2022-10-29T13:36:01.593Z,37.31
2022-10-29T13:38:52.400Z,37.32
2022-10-29T13:41:43.122Z,38.46
2022-10-29T13:44:17.398Z,38.52
2022-10-29T13:46:56.042Z,38.84
2022-10-29T13:49:33.808Z,39.90
2022-10-29T16:26:33.786Z,89.38
2022-10-29T16:29:00.771Z,87.89
2022-10-29T16:31:29.209Z,88.44
2022-10-29T16:34:01.296Z,92.84
2022-10-29T16:36:28.201Z,94.49
2022-10-29T16:38:54.856Z,100.00
2022-10-29T16:41:21.619Z,100.00
2022-10-29T16:43:48.380Z,100.00
2022-10-29T16:46:15.197Z,100.00
2022-10-29T16:48:42.478Z,100.00
2022-10-29T16:51:09.644Z,100.00
2022-10-29T16:53:36.612Z,100.00
2022-10-29T16:56:03.694Z,100.00
2022-10-29T16:58:30.580Z,100.00
2022-10-29T17:01:08.531Z,100.00
2022-10-29T17:03:35.621Z,100.00
2022-10-29T17:06:04.607Z,100.00
2022-10-29T17:08:32.965Z,100.00
2022-10-29T17:11:00.993Z,100.00
2022-10-29T17:13:28.375Z,100.00
2022-10-29T17:15:55.113Z,100.00
2022-10-29T17:18:23.146Z,100.00
2022-10-29T17:20:57.578Z,100.00
2022-10-29T17:23:24.836Z,100.00
2022-10-29T17:25:56.438Z,100.00
2022-10-29T17:28:24.380Z,100.00
2022-10-29T17:30:51.095Z,100.00
2022-10-29T17:33:18.291Z,100.00
2022-10-29T17:35:45.334Z,100.00
2022-10-29T17:38:12.380Z,100.00
2022-10-29T17:40:39.502Z,100.00
2022-10-29T17:43:06.605Z,100.00
2022-10-29T17:45:33.322Z,100.00
2022-10-29T17:48:00.449Z,100.00
2022-10-29T17:50:27.622Z,100.00
2022-10-29T17:52:54.932Z,100.00
2022-10-29T17:55:21.666Z,100.00
2022-10-29T17:57:48.489Z,100.00
2022-10-29T18:00:15.516Z,100.00
2022-10-29T18:02:42.601Z,100.00
2022-10-29T18:05:09.516Z,100.00
2022-10-29T18:07:36.219Z,100.00
2022-10-29T18:10:03.764Z,100.00
2022-10-29T18:12:30.512Z,100.00
2022-10-29T18:14:57.190Z,100.00
2022-10-29T18:17:23.892Z,100.00
2022-10-29T18:19:50.575Z,100.00
2022-10-29T18:22:17.243Z,100.00
2022-10-29T18:24:43.887Z,100.00
2022-10-29T18:27:10.668Z,100.00
2022-10-29T18:29:37.280Z,100.00
2022-10-29T18:32:04.291Z,100.00
2022-10-29T18:34:31.778Z,100.00
2022-10-29T18:36:58.527Z,100.00
2022-10-29T18:39:25.236Z,100.00
2022-10-29T18:41:51.910Z,100.00
2022-10-29T18:44:18.684Z,100.00
2022-10-29T18:46:45.363Z,100.00
2022-10-29T18:49:13.166Z,100.00
2022-10-29T18:51:39.993Z,100.00
2022-10-29T18:54:07.152Z,100.00
2022-10-29T18:56:33.897Z,100.00
2022-10-29T18:59:00.734Z,100.00
2022-10-29T19:01:32.843Z,100.00
2022-10-29T19:04:05.478Z,100.00
2022-10-29T19:06:34.545Z,100.00
2022-10-29T19:09:04.277Z,100.00
2022-10-29T19:11:30.975Z,100.00
2022-10-29T19:14:00.336Z,100.00
2022-10-29T19:16:28.628Z,100.00
2022-10-29T19:19:00.073Z,100.00
2022-10-29T19:21:27.334Z,100.00
2022-10-29T19:23:59.179Z,100.00
2022-10-29T19:26:28.326Z,100.00
2022-10-29T19:28:55.804Z,100.00
2022-10-29T19:31:26.580Z,100.00
2022-10-29T19:33:56.133Z,100.00
2022-10-29T19:36:24.272Z,100.00
2022-10-29T19:38:50.955Z,100.00
2022-10-29T19:41:18.160Z,100.00
2022-10-29T19:43:45.819Z,100.00
2022-10-29T19:46:17.849Z,100.00
2022-10-29T19:48:49.365Z,100.00
2022-10-29T19:51:17.070Z,100.00
2022-10-29T19:53:43.721Z,100.00
2022-10-29T19:56:16.263Z,100.00
2022-10-29T19:58:43.372Z,100.00
2022-10-29T20:01:16.328Z,100.00
2022-10-29T20:03:44.210Z,100.00
2022-10-29T20:06:12.703Z,100.00
2022-10-29T20:08:39.653Z,100.00
2022-10-29T20:11:06.978Z,100.00
2022-10-29T20:13:33.881Z,100.00
2022-10-29T20:16:01.537Z,100.00
2022-10-29T20:18:28.149Z,100.00
2022-10-29T20:20:56.689Z,100.00
2022-10-29T20:23:25.741Z,100.00
2022-10-29T20:25:52.604Z,100.00
2022-10-29T20:28:19.421Z,100.00
2022-10-29T20:30:46.379Z,100.00
2022-10-29T20:33:13.133Z,100.00
2022-10-29T20:35:39.861Z,100.00
2022-10-29T20:38:06.667Z,100.00
2022-10-29T20:40:33.518Z,100.00
2022-10-29T20:43:00.209Z,100.00
2022-10-29T20:45:27.026Z,100.00
2022-10-29T20:47:53.670Z,100.00
2022-10-29T20:50:20.336Z,100.00
2022-10-29T20:52:48.882Z,100.00
2022-10-29T20:55:16.449Z,100.00
2022-10-29T20:57:43.106Z,100.00
2022-10-29T21:00:10.603Z,100.00
2022-10-29T21:02:37.465Z,100.00
2022-10-29T21:05:04.558Z,100.00
2022-10-29T21:07:31.289Z,100.00
2022-10-29T21:09:57.901Z,100.00
2022-10-29T21:12:25.054Z,100.00
2022-10-29T21:14:51.693Z,100.00
2022-10-29T21:17:18.302Z,100.00
2022-10-29T21:19:44.950Z,100.00
2022-10-29T21:22:14.889Z,100.00
2022-10-29T21:24:44.614Z,100.00
2022-10-29T21:27:12.396Z,100.00
2022-10-29T21:29:38.994Z,100.00
2022-10-29T21:32:05.977Z,100.00
2022-10-29T21:34:32.585Z,100.00
2022-10-29T21:36:59.253Z,100.00
2022-10-29T21:39:26.409Z,100.00
2022-10-29T21:41:53.213Z,100.00
2022-10-29T21:44:19.846Z,100.00
2022-10-29T21:46:46.462Z,100.00
2022-10-29T21:49:13.105Z,100.00
2022-10-29T21:51:39.731Z,100.00
2022-10-29T21:54:06.459Z,100.00
2022-10-29T21:56:33.124Z,100.00
2022-10-29T21:58:59.912Z,100.00
2022-10-29T22:01:26.720Z,100.00
2022-10-29T22:03:53.416Z,100.00
2022-10-29T22:06:22.716Z,100.00
2022-10-29T22:08:56.873Z,100.00
2022-10-29T22:11:24.989Z,100.00
2022-10-29T22:13:52.950Z,100.00
2022-10-29T22:16:20.005Z,100.00
2022-10-29T22:18:46.788Z,100.00
2022-10-29T22:21:21.337Z,100.00
2022-10-29T22:23:53.393Z,100.00
2022-10-29T22:26:22.935Z,100.00
2022-10-29T22:28:50.226Z,100.00
2022-10-29T22:31:18.610Z,100.00
2022-10-29T22:33:45.694Z,100.00
2022-10-29T22:36:15.633Z,100.00
2022-10-29T22:38:42.579Z,100.00
2022-10-29T22:41:11.900Z,100.00
2022-10-29T22:43:38.897Z,100.00
2022-10-29T22:46:07.427Z,100.00
2022-10-29T22:48:35.010Z,100.00
2022-10-29T22:51:09.692Z,100.00
2022-10-29T22:53:36.361Z,100.00
2022-10-29T22:56:03.851Z,100.00
2022-10-29T22:58:31.236Z,100.00
2022-10-29T23:01:09.932Z,100.00
2022-10-29T23:03:38.747Z,100.00
2022-10-29T23:06:07.054Z,100.00
2022-10-29T23:08:34.359Z,100.00
2022-10-29T23:11:10.509Z,100.00
2022-10-29T23:13:37.238Z,100.00
2022-10-29T23:16:04.203Z,100.00
2022-10-29T23:18:30.930Z,100.00
2022-10-29T23:21:05.765Z,100.00
2022-10-29T23:23:33.294Z,100.00
2022-10-29T23:26:03.807Z,100.00
2022-10-29T23:28:35.273Z,100.00
2022-10-29T23:31:03.734Z,100.00
2022-10-29T23:33:31.882Z,100.00
2022-10-29T23:36:08.669Z,100.00
2022-10-29T23:38:35.612Z,100.00
2022-10-29T23:41:03.106Z,100.00
2022-10-29T23:43:30.387Z,100.00
2022-10-29T23:45:57.336Z,100.00
2022-10-29T23:48:24.571Z,100.00
2022-10-29T23:50:52.008Z,100.00
2022-10-29T23:53:18.995Z,100.00
2022-10-29T23:55:46.100Z,100.00
2022-10-29T23:58:14.726Z,100.00
